Time;durP1;ratioP1;P1;durP2;ratioP2;P2;SDS_P1;SDS_P2;PMS_P1;PMS_P2;Temp;Humidity;BMP_temperature;BMP_pressure;BME280_temperature;BME280_humidity;BME280_pressure;Samples;Min_cycle;Max_cycle;Signal;HPM_P1;HPM_P2
2023/05/30 00:00:13;;;;;;;7.40;3.43;;;14.70;99.90;;;;;;476890;250;28815;-83
2023/05/30 00:02:15;;;;;;;10.30;4.00;;;14.60;99.90;;;;;;477004;250;28823;-83
2023/05/30 00:04:16;;;;;;;6.23;3.97;;;14.60;99.90;;;;;;476974;250;28823;-83
2023/05/30 00:06:17;;;;;;;7.83;3.80;;;14.60;99.90;;;;;;477000;250;28886;-81
2023/05/30 00:08:18;;;;;;;10.70;4.67;;;14.60;99.90;;;;;;477057;250;28919;-83
2023/05/30 00:10:20;;;;;;;6.30;3.60;;;14.50;99.90;;;;;;477119;250;29324;-82
2023/05/30 00:12:21;;;;;;;8.77;4.00;;;14.50;99.90;;;;;;477138;250;29646;-84
2023/05/30 00:14:23;;;;;;;7.53;4.23;;;14.50;99.90;;;;;;477108;250;29285;-82
2023/05/30 00:16:23;;;;;;;8.30;4.07;;;14.50;99.90;;;;;;477144;250;28862;-82
2023/05/30 00:18:25;;;;;;;9.47;4.03;;;14.40;99.90;;;;;;477155;250;28853;-83
2023/05/30 00:20:29;;;;;;;14.20;3.73;;;14.40;99.90;;;;;;477266;250;28829;-83
2023/05/30 00:22:28;;;;;;;9.23;4.00;;;14.40;99.90;;;;;;477032;249;28866;-79
2023/05/30 00:24:31;;;;;;;9.13;3.50;;;14.40;99.90;;;;;;477255;249;28817;-83
2023/05/30 00:26:30;;;;;;;5.90;4.00;;;14.40;99.90;;;;;;477172;250;28840;-81
2023/05/30 00:28:31;;;;;;;9.43;4.00;;;14.30;99.90;;;;;;477323;250;28843;-85
2023/05/30 00:30:33;;;;;;;13.60;4.97;;;14.30;99.90;;;;;;477342;250;28912;-83
2023/05/30 00:32:33;;;;;;;10.83;4.20;;;14.20;99.90;;;;;;477346;250;29321;-82
2023/05/30 00:34:35;;;;;;;6.20;3.60;;;14.20;99.90;;;;;;477404;250;29422;-81
2023/05/30 00:36:36;;;;;;;7.87;3.73;;;14.20;99.90;;;;;;477480;250;29306;-82
2023/05/30 00:38:37;;;;;;;9.50;3.57;;;14.10;99.90;;;;;;477533;250;28686;-81
2023/05/30 00:40:38;;;;;;;13.63;3.50;;;14.10;99.90;;;;;;477505;249;28296;-81
2023/05/30 00:42:40;;;;;;;11.17;4.13;;;14.10;99.90;;;;;;477510;249;28701;-83
2023/05/30 00:44:41;;;;;;;10.80;4.20;;;14.10;99.90;;;;;;477479;249;28800;-82
2023/05/30 00:46:42;;;;;;;12.07;4.37;;;14.10;99.90;;;;;;477466;250;28801;-81
2023/05/30 00:48:43;;;;;;;10.53;4.07;;;14.00;99.90;;;;;;477488;250;28809;-85
2023/05/30 00:50:45;;;;;;;11.57;4.23;;;14.00;99.90;;;;;;477545;250;28742;-84
2023/05/30 00:52:46;;;;;;;9.03;4.33;;;13.90;99.90;;;;;;477605;250;28821;-83
2023/05/30 00:54:47;;;;;;;8.80;4.20;;;13.90;99.90;;;;;;477583;249;29258;-81
2023/05/30 00:56:48;;;;;;;10.97;3.40;;;13.90;99.90;;;;;;477590;250;29043;-82
2023/05/30 00:58:50;;;;;;;7.40;4.10;;;13.90;99.90;;;;;;477512;250;28534;-82
2023/05/30 01:00:52;;;;;;;10.07;3.40;;;13.80;99.90;;;;;;477551;250;28761;-82
2023/05/30 01:02:57;;;;;;;8.17;3.87;;;13.80;99.90;;;;;;477598;250;28759;-81
2023/05/30 01:04:53;;;;;;;6.37;3.50;;;13.80;99.90;;;;;;477362;250;28717;-81
2023/05/30 01:06:55;;;;;;;8.73;3.97;;;13.80;99.90;;;;;;477644;250;28736;-79
2023/05/30 01:08:56;;;;;;;10.20;4.33;;;13.80;99.90;;;;;;477665;250;28713;-81
2023/05/30 01:10:57;;;;;;;5.17;3.77;;;13.70;99.90;;;;;;477614;250;28731;-82
2023/05/30 01:12:59;;;;;;;8.93;3.97;;;13.70;99.90;;;;;;477582;250;28517;-83
2023/05/30 01:15:00;;;;;;;8.90;3.90;;;13.70;99.90;;;;;;477591;250;28721;-82
2023/05/30 01:17:01;;;;;;;9.53;3.80;;;13.70;99.90;;;;;;477598;249;29282;-82
2023/05/30 01:19:02;;;;;;;8.60;3.77;;;13.70;99.90;;;;;;477625;250;29197;-82
2023/05/30 01:21:03;;;;;;;8.67;3.83;;;13.70;99.90;;;;;;477638;250;29189;-80
2023/05/30 01:23:05;;;;;;;6.77;3.90;;;13.70;99.90;;;;;;477674;250;28753;-81
2023/05/30 01:25:06;;;;;;;7.83;3.43;;;13.60;99.90;;;;;;477633;250;28402;-81
2023/05/30 01:27:07;;;;;;;13.13;4.77;;;13.60;99.90;;;;;;477600;248;28329;-82
2023/05/30 01:29:08;;;;;;;7.83;4.00;;;13.60;99.90;;;;;;477556;250;28187;-82
2023/05/30 01:31:10;;;;;;;10.20;3.67;;;13.60;99.90;;;;;;477613;250;28392;-81
2023/05/30 01:33:11;;;;;;;11.67;3.80;;;13.50;99.90;;;;;;477696;250;28409;-81
2023/05/30 01:35:12;;;;;;;7.33;3.80;;;13.50;99.90;;;;;;477666;250;28469;-82
2023/05/30 01:37:13;;;;;;;14.10;4.50;;;13.50;99.90;;;;;;477722;249;28496;-81
2023/05/30 01:39:15;;;;;;;8.67;4.00;;;13.50;99.90;;;;;;477675;250;29033;-83
2023/05/30 01:41:16;;;;;;;9.70;3.90;;;13.50;99.90;;;;;;477735;250;28874;-82
2023/05/30 01:43:17;;;;;;;8.40;4.00;;;13.50;99.90;;;;;;477758;249;28749;-80
2023/05/30 01:45:18;;;;;;;13.47;4.27;;;13.50;99.90;;;;;;477629;250;28411;-84
2023/05/30 01:47:20;;;;;;;12.23;4.50;;;13.50;99.90;;;;;;477673;250;28384;-81
2023/05/30 01:49:21;;;;;;;10.23;3.60;;;13.50;99.90;;;;;;477660;250;28316;-82
2023/05/30 01:51:23;;;;;;;9.20;3.73;;;13.40;99.90;;;;;;477665;250;28213;-80
2023/05/30 01:53:23;;;;;;;8.53;3.50;;;13.40;99.90;;;;;;477662;249;28452;-82
2023/05/30 01:55:25;;;;;;;8.80;3.87;;;13.40;99.90;;;;;;477598;250;28562;-83
2023/05/30 01:57:26;;;;;;;10.87;4.30;;;13.30;99.90;;;;;;477667;250;28331;-81
2023/05/30 01:59:27;;;;;;;7.93;3.63;;;13.30;99.90;;;;;;477648;250;28367;-82
2023/05/30 02:01:28;;;;;;;11.80;3.70;;;13.30;99.90;;;;;;477653;250;28961;-82
2023/05/30 02:03:30;;;;;;;6.73;3.67;;;13.20;99.90;;;;;;477653;250;28771;-82
2023/05/30 02:05:31;;;;;;;8.87;3.30;;;13.20;99.90;;;;;;477666;250;28507;-82
2023/05/30 02:07:32;;;;;;;10.37;4.53;;;13.20;99.90;;;;;;477735;249;28710;-81
2023/05/30 02:09:33;;;;;;;8.90;3.43;;;13.20;99.90;;;;;;477714;250;28291;-83
2023/05/30 02:11:35;;;;;;;10.80;3.50;;;13.10;99.90;;;;;;477686;249;28387;-81
2023/05/30 02:13:36;;;;;;;7.87;3.60;;;13.10;99.90;;;;;;477747;249;28506;-80
2023/05/30 02:15:37;;;;;;;10.27;4.00;;;13.10;99.90;;;;;;477728;249;28527;-80
2023/05/30 02:17:38;;;;;;;10.13;4.50;;;13.00;99.90;;;;;;477768;249;28294;-81
2023/05/30 02:19:40;;;;;;;8.00;3.90;;;13.00;99.90;;;;;;477770;250;28170;-84
2023/05/30 02:21:41;;;;;;;12.87;3.90;;;13.00;99.90;;;;;;477767;250;28658;-81
2023/05/30 02:23:42;;;;;;;7.13;3.50;;;13.00;99.90;;;;;;477777;249;28648;-80
2023/05/30 02:25:44;;;;;;;6.73;3.57;;;13.00;99.90;;;;;;477705;249;28574;-80
2023/05/30 02:27:47;;;;;;;9.33;3.50;;;12.90;99.90;;;;;;477755;250;28257;-81
2023/05/30 02:29:46;;;;;;;5.17;3.47;;;12.90;99.90;;;;;;477636;249;28079;-81
2023/05/30 02:31:47;;;;;;;10.67;3.70;;;12.90;99.90;;;;;;477744;250;28290;-81
2023/05/30 02:33:49;;;;;;;9.40;3.50;;;12.90;99.90;;;;;;477672;250;28185;-82
2023/05/30 02:35:50;;;;;;;8.50;3.13;;;12.80;99.90;;;;;;477714;249;28306;-82
2023/05/30 02:37:51;;;;;;;6.67;3.87;;;12.80;99.90;;;;;;477752;249;28323;-82
2023/05/30 02:39:52;;;;;;;12.10;3.97;;;12.70;99.90;;;;;;477771;250;28227;-81
2023/05/30 02:41:54;;;;;;;11.13;3.70;;;12.70;99.90;;;;;;477683;250;28251;-82
2023/05/30 02:43:55;;;;;;;10.37;3.30;;;12.70;99.90;;;;;;477726;247;28701;-80
2023/05/30 02:45:56;;;;;;;6.30;3.10;;;12.70;99.90;;;;;;477706;250;28540;-81
2023/05/30 02:47:57;;;;;;;8.57;3.80;;;12.60;99.90;;;;;;477739;250;28177;-81
2023/05/30 02:49:59;;;;;;;12.50;4.03;;;12.60;99.90;;;;;;477741;249;28243;-80
2023/05/30 02:52:00;;;;;;;8.97;3.50;;;12.60;99.90;;;;;;477662;250;28163;-80
2023/05/30 02:54:01;;;;;;;6.20;3.60;;;12.60;99.90;;;;;;477686;250;28273;-80
2023/05/30 02:56:02;;;;;;;6.40;3.60;;;12.60;99.90;;;;;;477650;250;28078;-80
2023/05/30 02:58:04;;;;;;;9.50;3.80;;;12.50;99.90;;;;;;477705;250;28070;-81
2023/05/30 03:00:05;;;;;;;8.70;3.73;;;12.50;99.90;;;;;;477663;250;28312;-83
2023/05/30 03:02:06;;;;;;;7.57;3.40;;;12.50;99.90;;;;;;477736;250;27980;-80
2023/05/30 03:04:07;;;;;;;8.03;3.30;;;12.40;99.90;;;;;;477718;249;27984;-80
2023/05/30 03:06:09;;;;;;;6.67;3.00;;;12.40;99.90;;;;;;477615;250;28072;-83
2023/05/30 03:08:10;;;;;;;7.47;3.57;;;12.40;99.90;;;;;;477693;250;29155;-81
2023/05/30 03:10:11;;;;;;;8.93;3.50;;;12.40;99.90;;;;;;477764;249;28809;-80
2023/05/30 03:12:12;;;;;;;6.57;3.30;;;12.40;99.90;;;;;;477766;246;28071;-80
2023/05/30 03:14:15;;;;;;;9.23;3.20;;;12.50;99.90;;;;;;477805;248;28083;-78
2023/05/30 03:16:16;;;;;;;10.27;3.23;;;;;;;;;;477721;249;28110;-83
2023/05/30 03:18:19;;;;;;;8.07;3.70;;;;;;;;;;477751;249;26483;-83
2023/05/30 03:20:21;;;;;;;10.70;3.47;;;12.30;99.90;;;;;;477776;250;26457;-80
2023/05/30 03:22:21;;;;;;;6.83;3.13;;;12.30;99.90;;;;;;488784;240;28168;-83
2023/05/30 03:24:23;;;;;;;13.77;3.87;;;12.30;99.90;;;;;;489656;240;28289;-80
2023/05/30 03:26:24;;;;;;;6.70;3.60;;;12.30;99.90;;;;;;489703;243;28331;-82
2023/05/30 03:28:25;;;;;;;7.93;3.40;;;12.30;99.90;;;;;;489710;243;28184;-80
2023/05/30 03:30:27;;;;;;;9.90;3.63;;;12.20;99.90;;;;;;489720;243;28048;-79
2023/05/30 03:32:27;;;;;;;7.67;3.40;;;12.30;99.90;;;;;;489664;243;28792;-83
2023/05/30 03:34:30;;;;;;;6.50;3.40;;;12.30;99.90;;;;;;489718;243;28775;-80
2023/05/30 03:36:30;;;;;;;8.60;3.30;;;12.20;99.90;;;;;;489637;243;28815;-79
2023/05/30 03:38:31;;;;;;;8.00;3.33;;;12.20;99.90;;;;;;489739;243;28830;-81
2023/05/30 03:40:32;;;;;;;7.17;2.87;;;12.20;99.90;;;;;;489714;243;28070;-80
2023/05/30 03:42:33;;;;;;;10.80;3.90;;;12.20;99.90;;;;;;489700;243;28297;-80
2023/05/30 03:44:35;;;;;;;9.27;4.00;;;12.10;99.90;;;;;;489660;243;28069;-80
2023/05/30 03:46:37;;;;;;;12.10;3.20;;;;;;;;;;489777;243;28178;-82
2023/05/30 03:48:40;;;;;;;10.63;3.30;;;;;;;;;;489775;243;27081;-83
2023/05/30 03:50:41;;;;;;;8.43;3.43;;;12.10;99.90;;;;;;492095;242;26364;-79
2023/05/30 03:52:43;;;;;;;7.70;3.00;;;;;;;;;;492124;242;28086;-83
2023/05/30 03:54:44;;;;;;;7.70;3.40;;;12.10;99.90;;;;;;492043;242;26494;-80
2023/05/30 03:56:46;;;;;;;12.67;3.80;;;12.10;99.90;;;;;;492070;242;28382;-80
2023/05/30 03:58:47;;;;;;;7.83;3.27;;;12.20;99.90;;;;;;492063;242;28182;-79
2023/05/30 04:00:48;;;;;;;7.13;3.17;;;12.20;99.90;;;;;;492045;242;28152;-83
2023/05/30 04:02:49;;;;;;;11.80;3.70;;;12.10;99.90;;;;;;492047;242;28253;-80
2023/05/30 04:04:52;;;;;;;7.63;3.53;;;12.20;99.90;;;;;;491999;242;28087;-81
2023/05/30 04:06:53;;;;;;;10.27;3.37;;;12.20;99.90;;;;;;491950;242;28222;-81
2023/05/30 04:08:53;;;;;;;7.33;3.20;;;12.20;99.90;;;;;;491995;242;28073;-81
2023/05/30 04:10:55;;;;;;;6.00;3.63;;;12.20;99.90;;;;;;491990;242;28268;-81
2023/05/30 04:12:57;;;;;;;10.77;3.27;;;;;;;;;;492004;242;28873;-83
2023/05/30 04:14:58;;;;;;;9.83;3.10;;;12.20;99.90;;;;;;491954;242;26446;-80
2023/05/30 04:16:59;;;;;;;9.03;3.27;;;12.20;99.90;;;;;;491975;242;28183;-81
2023/05/30 04:19:01;;;;;;;10.27;3.33;;;12.20;99.90;;;;;;492061;242;28050;-80
2023/05/30 04:21:03;;;;;;;7.20;3.77;;;;;;;;;;492023;242;28223;-84
2023/05/30 04:23:06;;;;;;;6.83;3.67;;;;;;;;;;489385;242;26664;-85
2023/05/30 04:25:07;;;;;;;8.20;3.10;;;12.20;99.90;;;;;;488690;244;26624;-81
2023/05/30 04:27:08;;;;;;;6.10;3.60;;;12.30;99.90;;;;;;488809;244;28210;-79
2023/05/30 04:29:11;;;;;;;8.80;3.30;;;;;;;;;;488816;244;28871;-85
2023/05/30 04:31:12;;;;;;;6.70;3.33;;;12.20;99.90;;;;;;488822;244;26684;-79
2023/05/30 04:33:14;;;;;;;7.43;3.73;;;12.30;99.90;;;;;;488814;244;28263;-80
2023/05/30 04:35:14;;;;;;;6.87;2.90;;;12.30;99.90;;;;;;488733;244;28335;-80
2023/05/30 04:37:19;;;;;;;10.67;3.40;;;12.30;99.90;;;;;;488832;244;28199;-81
2023/05/30 04:39:21;;;;;;;6.77;3.20;;;12.30;99.90;;;;;;488866;244;28859;-80
2023/05/30 04:41:24;;;;;;;7.00;2.97;;;12.40;99.90;;;;;;488795;244;28813;-81
2023/05/30 04:43:22;;;;;;;9.93;3.20;;;12.40;99.90;;;;;;488726;244;28288;-79
2023/05/30 04:45:28;;;;;;;10.67;3.60;;;12.40;99.90;;;;;;488760;244;28298;-78
2023/05/30 04:47:25;;;;;;;6.70;3.27;;;12.40;99.90;;;;;;488552;244;28327;-82
2023/05/30 04:49:26;;;;;;;11.00;3.60;;;12.50;99.90;;;;;;488744;244;28211;-81
2023/05/30 04:51:27;;;;;;;7.97;3.43;;;12.50;99.90;;;;;;488720;244;28391;-81
2023/05/30 04:53:28;;;;;;;8.07;3.57;;;12.50;99.90;;;;;;488754;244;28510;-82
2023/05/30 04:55:30;;;;;;;10.60;4.10;;;12.50;99.90;;;;;;488705;244;28291;-81
2023/05/30 04:57:31;;;;;;;8.20;3.47;;;12.50;99.90;;;;;;488752;244;28330;-82
2023/05/30 04:59:32;;;;;;;12.17;3.87;;;12.50;99.90;;;;;;488739;244;28395;-81
2023/05/30 05:01:36;;;;;;;10.37;3.20;;;12.60;99.90;;;;;;488710;244;29018;-83
2023/05/30 05:03:35;;;;;;;7.10;3.23;;;12.60;99.90;;;;;;488583;244;28800;-82
2023/05/30 05:05:36;;;;;;;10.90;3.27;;;12.70;99.90;;;;;;488594;244;28318;-81
2023/05/30 05:07:37;;;;;;;6.60;3.37;;;12.70;99.90;;;;;;488637;244;28861;-83
2023/05/30 05:09:39;;;;;;;11.13;3.73;;;12.80;99.90;;;;;;488659;244;28440;-84
2023/05/30 05:11:40;;;;;;;5.83;3.00;;;12.70;99.90;;;;;;488617;244;28298;-85
2023/05/30 05:13:41;;;;;;;6.23;2.80;;;12.80;99.90;;;;;;488706;244;28611;-80
2023/05/30 05:15:42;;;;;;;14.63;4.40;;;12.80;99.90;;;;;;488715;244;28859;-81
2023/05/30 05:17:44;;;;;;;9.93;3.77;;;12.70;99.90;;;;;;488782;244;28333;-83
2023/05/30 05:19:45;;;;;;;8.60;3.40;;;12.80;99.90;;;;;;488751;244;28312;-81
2023/05/30 05:21:46;;;;;;;7.57;3.40;;;12.70;99.90;;;;;;488620;241;28969;-84
2023/05/30 05:23:47;;;;;;;10.00;3.20;;;12.80;99.90;;;;;;488641;244;28760;-82
2023/05/30 05:25:49;;;;;;;8.73;3.53;;;12.70;99.90;;;;;;488736;244;29170;-81
2023/05/30 05:27:50;;;;;;;9.80;3.23;;;12.70;99.90;;;;;;488745;244;28405;-82
2023/05/30 05:29:51;;;;;;;7.17;3.50;;;12.80;99.90;;;;;;488729;244;28323;-82
2023/05/30 05:31:52;;;;;;;10.20;3.60;;;12.80;99.90;;;;;;488739;244;28269;-84
2023/05/30 05:33:54;;;;;;;9.03;3.43;;;12.90;99.90;;;;;;488638;244;28548;-82
2023/05/30 05:35:55;;;;;;;8.23;3.50;;;12.90;99.90;;;;;;488633;244;28640;-80
2023/05/30 05:37:56;;;;;;;8.77;3.30;;;13.00;99.90;;;;;;488568;244;29015;-83
2023/05/30 05:39:58;;;;;;;5.17;2.93;;;13.00;99.90;;;;;;488583;244;28387;-86
2023/05/30 05:41:59;;;;;;;12.40;3.73;;;13.10;99.90;;;;;;488546;244;28536;-83
2023/05/30 05:44:00;;;;;;;6.33;2.90;;;13.00;99.90;;;;;;488519;244;28799;-83
2023/05/30 05:46:01;;;;;;;11.60;3.07;;;13.10;99.90;;;;;;488417;244;29294;-82
2023/05/30 05:48:02;;;;;;;13.00;3.50;;;13.10;99.90;;;;;;488538;244;29021;-82
2023/05/30 05:50:04;;;;;;;10.50;3.13;;;13.10;99.90;;;;;;488527;244;28510;-82
2023/05/30 05:52:05;;;;;;;10.93;3.10;;;13.10;99.90;;;;;;488526;244;28555;-84
2023/05/30 05:54:06;;;;;;;8.43;3.57;;;13.20;99.90;;;;;;488494;244;28542;-83
2023/05/30 05:56:07;;;;;;;11.03;3.40;;;13.20;99.90;;;;;;488409;244;28847;-82
2023/05/30 05:58:09;;;;;;;11.10;3.17;;;13.30;99.90;;;;;;488467;244;28548;-84
2023/05/30 06:00:10;;;;;;;6.93;3.33;;;13.30;99.90;;;;;;488387;244;28935;-84
2023/05/30 06:02:11;;;;;;;10.07;4.07;;;13.30;99.90;;;;;;488276;244;28837;-85
2023/05/30 06:04:13;;;;;;;11.57;3.87;;;13.40;99.90;;;;;;488202;244;29427;-82
2023/05/30 06:06:14;;;;;;;8.23;3.20;;;13.30;99.90;;;;;;488172;244;29443;-82
2023/05/30 06:08:15;;;;;;;10.20;3.30;;;13.40;99.90;;;;;;488184;244;29377;-84
2023/05/30 06:10:16;;;;;;;14.73;3.70;;;13.50;99.90;;;;;;488037;244;28728;-84
2023/05/30 06:12:17;;;;;;;8.77;3.37;;;13.40;99.90;;;;;;488058;244;28762;-85
2023/05/30 06:14:19;;;;;;;9.50;3.10;;;13.50;99.90;;;;;;488092;244;28850;-84
2023/05/30 06:16:20;;;;;;;9.60;3.80;;;13.50;99.90;;;;;;488055;244;28862;-82
2023/05/30 06:18:21;;;;;;;9.17;2.87;;;13.50;99.90;;;;;;488069;244;28828;-85
2023/05/30 06:20:22;;;;;;;12.00;3.23;;;13.40;99.90;;;;;;488113;244;28946;-84
2023/05/30 06:22:24;;;;;;;7.30;3.13;;;13.50;99.90;;;;;;488129;244;28877;-85
2023/05/30 06:24:25;;;;;;;9.93;3.40;;;13.50;99.90;;;;;;487857;244;29308;-82
2023/05/30 06:26:26;;;;;;;6.67;2.97;;;13.70;99.90;;;;;;487885;244;29421;-83
2023/05/30 06:28:27;;;;;;;15.90;3.10;;;13.80;99.90;;;;;;487905;244;29210;-84
2023/05/30 06:30:29;;;;;;;6.90;3.33;;;13.80;99.90;;;;;;487909;244;28842;-84
2023/05/30 06:32:30;;;;;;;7.80;3.70;;;13.70;99.90;;;;;;487922;244;28826;-84
2023/05/30 06:34:31;;;;;;;11.13;3.57;;;13.70;99.90;;;;;;487888;244;28790;-85
2023/05/30 06:36:32;;;;;;;7.90;3.50;;;13.80;99.90;;;;;;487854;244;28759;-85
2023/05/30 06:38:34;;;;;;;10.47;3.47;;;13.80;99.90;;;;;;487898;244;28753;-85
2023/05/30 06:40:35;;;;;;;11.83;3.47;;;13.90;99.90;;;;;;487868;244;28758;-84
2023/05/30 06:42:36;;;;;;;6.17;3.00;;;14.00;99.90;;;;;;487776;244;28836;-84
2023/05/30 06:44:37;;;;;;;9.37;3.23;;;14.00;99.90;;;;;;487709;244;28763;-85
2023/05/30 06:46:39;;;;;;;8.50;3.37;;;14.00;99.90;;;;;;487733;244;29295;-82
2023/05/30 06:48:40;;;;;;;6.87;3.10;;;14.10;99.90;;;;;;487717;244;29193;-84
2023/05/30 06:50:41;;;;;;;8.87;3.30;;;14.20;99.70;;;;;;487663;244;29218;-83
2023/05/30 06:52:42;;;;;;;8.43;3.73;;;14.10;99.30;;;;;;487702;244;28747;-86
2023/05/30 06:54:44;;;;;;;11.07;3.83;;;14.10;99.50;;;;;;487658;244;28778;-85
2023/05/30 06:56:45;;;;;;;11.10;3.17;;;14.10;99.60;;;;;;487666;244;28854;-85
2023/05/30 06:58:46;;;;;;;10.80;3.53;;;14.20;99.40;;;;;;487588;244;28777;-84
2023/05/30 07:00:47;;;;;;;10.83;3.53;;;14.50;99.40;;;;;;487582;244;28813;-83
2023/05/30 07:02:49;;;;;;;8.90;3.60;;;14.60;99.00;;;;;;487550;244;28902;-84
2023/05/30 07:04:50;;;;;;;8.93;3.57;;;14.60;98.80;;;;;;487515;244;28846;-84
2023/05/30 07:06:51;;;;;;;9.33;3.20;;;14.50;98.50;;;;;;487554;244;28732;-84
2023/05/30 07:08:52;;;;;;;8.90;3.00;;;14.60;98.60;;;;;;487567;244;29236;-84
2023/05/30 07:10:55;;;;;;;9.50;3.30;;;14.60;98.60;;;;;;487554;244;28741;-84
2023/05/30 07:12:55;;;;;;;9.03;3.60;;;14.70;98.50;;;;;;487548;244;28758;-84
2023/05/30 07:14:56;;;;;;;9.37;3.20;;;14.70;98.30;;;;;;487514;244;28768;-84
2023/05/30 07:16:58;;;;;;;8.33;3.30;;;14.90;98.10;;;;;;487526;244;29245;-82
2023/05/30 07:18:59;;;;;;;6.17;3.17;;;15.10;98.60;;;;;;487537;241;29188;-84
2023/05/30 07:21:00;;;;;;;7.50;3.40;;;15.10;97.90;;;;;;487518;244;29214;-84
2023/05/30 07:23:01;;;;;;;7.30;3.10;;;15.10;98.30;;;;;;487508;244;28756;-85
2023/05/30 07:25:03;;;;;;;5.93;3.33;;;15.30;97.70;;;;;;487476;244;28840;-84
2023/05/30 07:27:04;;;;;;;9.30;3.20;;;15.20;97.70;;;;;;487514;244;28759;-81
2023/05/30 07:29:05;;;;;;;6.00;2.60;;;15.40;98.10;;;;;;487491;244;28745;-84
2023/05/30 07:31:06;;;;;;;10.10;3.67;;;15.20;97.60;;;;;;487525;244;28820;-83
2023/05/30 07:33:08;;;;;;;9.17;3.30;;;15.40;98.10;;;;;;487504;244;28812;-83
2023/05/30 07:35:09;;;;;;;9.40;3.23;;;15.50;97.70;;;;;;487482;244;28756;-84
2023/05/30 07:37:10;;;;;;;9.73;4.00;;;15.50;97.40;;;;;;487518;244;28824;-81
2023/05/30 07:39:11;;;;;;;9.80;3.53;;;15.30;97.30;;;;;;487514;244;28752;-84
2023/05/30 07:41:13;;;;;;;9.00;3.40;;;15.50;97.40;;;;;;487522;244;29225;-83
2023/05/30 07:43:14;;;;;;;12.03;3.60;;;15.40;97.00;;;;;;487509;244;29242;-85
2023/05/30 07:45:15;;;;;;;7.47;3.03;;;15.60;97.50;;;;;;487482;244;29333;-84
2023/05/30 07:47:16;;;;;;;8.13;3.10;;;15.70;96.60;;;;;;487490;244;28846;-84
2023/05/30 07:49:19;;;;;;;8.73;3.40;;;15.80;96.60;;;;;;487517;244;28911;-83
2023/05/30 07:51:20;;;;;;;9.70;4.40;;;16.00;96.40;;;;;;487446;244;28830;-83
2023/05/30 07:53:20;;;;;;;12.80;3.67;;;15.90;96.40;;;;;;487453;244;28838;-83
2023/05/30 07:55:21;;;;;;;9.53;3.47;;;15.90;96.50;;;;;;487465;244;28846;-84
2023/05/30 07:57:23;;;;;;;8.17;3.47;;;15.80;95.70;;;;;;487492;244;28751;-85
2023/05/30 07:59:24;;;;;;;10.80;3.40;;;15.90;96.30;;;;;;487499;244;28831;-83
2023/05/30 08:01:26;;;;;;;8.50;3.80;;;16.10;96.10;;;;;;487495;241;28767;-83
2023/05/30 08:03:26;;;;;;;5.80;3.07;;;16.10;95.80;;;;;;487464;244;29223;-83
2023/05/30 08:05:28;;;;;;;7.60;2.80;;;16.10;95.80;;;;;;487441;244;29231;-83
2023/05/30 08:07:31;;;;;;;7.37;2.77;;;16.20;96.30;;;;;;487493;244;29688;-84
2023/05/30 08:09:30;;;;;;;9.43;3.40;;;16.10;95.50;;;;;;487463;244;29306;-85
2023/05/30 08:11:31;;;;;;;7.47;3.37;;;16.20;95.60;;;;;;487532;244;28740;-83
2023/05/30 08:13:33;;;;;;;11.23;3.50;;;16.40;95.20;;;;;;487517;244;28760;-85
2023/05/30 08:15:34;;;;;;;17.70;3.53;;;16.50;95.00;;;;;;487462;242;28770;-83
2023/05/30 08:17:35;;;;;;;10.40;3.53;;;16.60;94.90;;;;;;487505;244;28776;-84
2023/05/30 08:19:36;;;;;;;7.53;3.30;;;16.70;94.50;;;;;;487482;244;28756;-82
2023/05/30 08:21:38;;;;;;;5.80;3.23;;;16.70;94.20;;;;;;487514;244;28756;-81
2023/05/30 08:23:39;;;;;;;7.17;4.07;;;16.70;94.10;;;;;;487502;244;28820;-84
2023/05/30 08:25:45;;;;;;;6.80;3.07;;;16.80;94.40;;;;;;487453;244;28750;-84
2023/05/30 08:27:42;;;;;;;7.10;3.30;;;17.00;94.60;;;;;;487336;244;29304;-83
2023/05/30 08:29:43;;;;;;;7.30;3.30;;;17.10;94.20;;;;;;487493;244;29325;-82
2023/05/30 08:31:44;;;;;;;8.37;3.10;;;17.20;93.30;;;;;;487489;244;28754;-82
2023/05/30 08:33:45;;;;;;;7.70;3.67;;;17.10;93.70;;;;;;487488;244;28734;-83
2023/05/30 08:35:46;;;;;;;7.40;2.97;;;17.10;93.60;;;;;;487450;244;28850;-83
2023/05/30 08:37:48;;;;;;;8.27;3.47;;;17.20;93.60;;;;;;487477;244;29326;-81
2023/05/30 08:39:49;;;;;;;6.80;3.17;;;17.20;93.60;;;;;;487494;244;29305;-84
2023/05/30 08:41:50;;;;;;;12.00;3.80;;;17.10;93.80;;;;;;487511;244;28756;-83
2023/05/30 08:43:51;;;;;;;12.13;3.90;;;17.00;93.90;;;;;;487489;244;28847;-84
2023/05/30 08:45:56;;;;;;;6.27;3.17;;;16.90;94.00;;;;;;487433;244;28747;-84
2023/05/30 08:47:57;;;;;;;12.50;3.37;;;17.00;94.30;;;;;;487488;244;29223;-82
2023/05/30 08:49:58;;;;;;;10.03;3.37;;;17.20;94.40;;;;;;487474;244;29209;-81
2023/05/30 08:51:59;;;;;;;6.50;2.80;;;17.10;94.20;;;;;;487492;244;28750;-82
2023/05/30 08:54:02;;;;;;;6.30;3.40;;;17.20;94.10;;;;;;487498;244;28747;-84
2023/05/30 08:56:02;;;;;;;9.33;3.60;;;16.80;94.30;;;;;;487407;244;28745;-82
2023/05/30 08:58:04;;;;;;;8.33;3.40;;;16.80;94.50;;;;;;487488;244;28736;-84
2023/05/30 09:00:05;;;;;;;9.07;3.50;;;17.10;94.70;;;;;;487491;244;28839;-83
2023/05/30 09:02:06;;;;;;;8.10;3.07;;;17.10;94.40;;;;;;487461;244;28756;-84
2023/05/30 09:04:07;;;;;;;10.60;3.87;;;17.00;94.80;;;;;;487497;244;28749;-82
2023/05/30 09:06:08;;;;;;;8.70;3.73;;;16.80;94.50;;;;;;487437;244;28834;-82
2023/05/30 09:08:10;;;;;;;7.33;3.80;;;17.00;93.90;;;;;;487484;244;29210;-83
2023/05/30 09:10:11;;;;;;;8.37;3.53;;;17.30;93.90;;;;;;487499;244;29320;-84
2023/05/30 09:12:12;;;;;;;12.83;3.53;;;17.30;93.90;;;;;;487462;244;29242;-84
2023/05/30 09:14:13;;;;;;;7.50;3.27;;;17.20;94.00;;;;;;487445;244;28833;-81
2023/05/30 09:16:14;;;;;;;6.90;3.20;;;17.30;93.60;;;;;;487434;244;28830;-83
2023/05/30 09:18:19;;;;;;;10.43;3.90;;;17.20;93.80;;;;;;487487;244;28806;-82
2023/05/30 09:20:17;;;;;;;6.27;3.30;;;17.40;93.80;;;;;;487311;244;28766;-82
2023/05/30 09:22:18;;;;;;;7.00;3.70;;;17.50;93.70;;;;;;487475;244;28809;-83
2023/05/30 09:24:20;;;;;;;13.33;4.07;;;17.50;92.80;;;;;;487458;244;28777;-82
2023/05/30 09:26:21;;;;;;;9.80;3.73;;;17.40;93.80;;;;;;487490;244;28743;-83
2023/05/30 09:28:22;;;;;;;7.20;3.33;;;17.50;93.20;;;;;;487488;244;28763;-84
2023/05/30 09:30:23;;;;;;;5.03;2.80;;;17.60;93.20;;;;;;487492;244;28734;-82
2023/05/30 09:32:25;;;;;;;10.43;3.30;;;17.60;93.20;;;;;;487466;244;29194;-83
2023/05/30 09:34:26;;;;;;;9.00;3.40;;;17.70;93.50;;;;;;484896;244;47866;-83
2023/05/30 09:36:28;;;;;;;11.70;3.50;;;17.90;93.00;;;;;;487507;244;27971;-83
2023/05/30 09:38:29;;;;;;;12.37;3.57;;;17.80;92.80;;;;;;487491;244;28757;-83
2023/05/30 09:40:29;;;;;;;12.03;3.40;;;17.70;92.70;;;;;;487499;244;28760;-82
2023/05/30 09:42:31;;;;;;;7.57;3.40;;;17.50;92.70;;;;;;487509;244;28822;-85
2023/05/30 09:44:32;;;;;;;14.13;4.33;;;17.80;93.50;;;;;;487440;244;28751;-83
2023/05/30 09:46:35;;;;;;;9.67;3.43;;;18.00;92.70;;;;;;487454;244;28743;-83
2023/05/30 09:48:34;;;;;;;7.83;3.37;;;17.90;92.10;;;;;;487440;244;28747;-82
2023/05/30 09:50:36;;;;;;;7.70;4.20;;;17.90;92.70;;;;;;487458;244;28844;-82
2023/05/30 09:52:37;;;;;;;9.93;3.70;;;18.20;91.90;;;;;;487501;244;29184;-83
2023/05/30 09:54:38;;;;;;;8.57;3.40;;;18.00;91.50;;;;;;487484;244;29230;-83
2023/05/30 09:56:39;;;;;;;9.93;3.43;;;18.00;91.80;;;;;;487502;244;29230;-83
2023/05/30 09:58:41;;;;;;;7.63;2.90;;;18.00;91.70;;;;;;487525;244;28756;-84
2023/05/30 10:00:42;;;;;;;6.27;3.20;;;18.10;91.80;;;;;;487532;244;28801;-84
2023/05/30 10:02:43;;;;;;;8.27;3.20;;;18.00;91.60;;;;;;487523;244;28797;-84
2023/05/30 10:04:46;;;;;;;12.40;3.63;;;18.00;91.30;;;;;;487489;244;28759;-82
2023/05/30 10:06:46;;;;;;;8.30;3.97;;;18.00;91.80;;;;;;487467;244;28750;-84
2023/05/30 10:08:48;;;;;;;7.30;3.87;;;18.10;90.40;;;;;;487518;244;28752;-82
2023/05/30 10:10:48;;;;;;;11.90;3.63;;;18.20;91.20;;;;;;487500;244;28819;-83
2023/05/30 10:12:49;;;;;;;7.70;3.77;;;18.40;91.10;;;;;;487498;244;28743;-83
2023/05/30 10:14:51;;;;;;;10.53;3.97;;;18.20;90.40;;;;;;487491;244;29306;-83
2023/05/30 10:16:52;;;;;;;10.73;4.57;;;17.90;90.60;;;;;;487539;244;29220;-82
2023/05/30 10:18:53;;;;;;;9.57;3.87;;;18.00;90.40;;;;;;487522;244;29226;-84
2023/05/30 10:20:54;;;;;;;9.50;3.80;;;18.10;91.20;;;;;;487528;244;28761;-83
2023/05/30 10:22:56;;;;;;;10.30;3.77;;;18.20;90.90;;;;;;487516;244;28724;-83
2023/05/30 10:24:57;;;;;;;9.70;3.80;;;18.40;90.90;;;;;;487491;244;28852;-82
2023/05/30 10:26:58;;;;;;;10.10;3.90;;;18.50;91.10;;;;;;487497;244;28747;-82
2023/05/30 10:28:59;;;;;;;9.33;3.23;;;18.60;90.90;;;;;;487511;244;28849;-83